createdAt,value
2022-11-28T00:02:07.956Z,9.85
2022-11-28T00:05:13.617Z,9.83
2022-11-28T00:08:20.444Z,9.75
2022-11-28T00:11:27.944Z,9.50
2022-11-28T00:14:34.060Z,9.70
2022-11-28T00:17:40.335Z,9.62
2022-11-28T00:20:47.661Z,9.84
2022-11-28T00:23:53.745Z,9.83
2022-11-28T00:26:54.193Z,10.05
2022-11-28T00:29:47.693Z,10.37
2022-11-28T00:32:53.577Z,10.58
2022-11-28T00:35:59.668Z,10.55
2022-11-28T00:39:05.819Z,10.15
2022-11-28T00:42:11.740Z,9.99
2022-11-28T00:45:17.567Z,9.99
2022-11-28T00:48:23.211Z,9.95
2022-11-28T00:51:36.254Z,10.12
2022-11-28T00:54:42.579Z,10.09
2022-11-28T00:57:49.072Z,10.07
2022-11-28T01:00:54.500Z,10.06
2022-11-28T01:03:59.799Z,10.07
2022-11-28T01:07:06.367Z,10.09
2022-11-28T01:10:05.041Z,10.08
2022-11-28T01:13:12.626Z,10.13
2022-11-28T01:16:19.384Z,10.11
2022-11-28T01:19:26.991Z,10.01
2022-11-28T01:22:32.696Z,10.05
2022-11-28T01:25:38.559Z,10.19
2022-11-28T01:28:44.748Z,9.91
2022-11-28T01:31:50.410Z,10.04
2022-11-28T01:34:56.430Z,10.13
2022-11-28T01:38:02.802Z,10.30
2022-11-28T01:41:08.078Z,10.13
2022-11-28T01:44:29.676Z,10.23
2022-11-28T01:47:37.492Z,10.29
2022-11-28T01:50:43.698Z,10.16
2022-11-28T01:53:52.233Z,10.11
2022-11-28T01:57:07.633Z,10.21
2022-11-28T02:00:19.593Z,10.23
2022-11-28T02:03:35.308Z,10.32
2022-11-28T02:06:40.870Z,10.12
2022-11-28T02:09:46.844Z,10.03
2022-11-28T02:13:16.320Z,10.09
2022-11-28T02:16:45.682Z,9.98
2022-11-28T02:20:28.350Z,9.96
2022-11-28T02:24:03.056Z,9.91
2022-11-28T02:27:45.956Z,9.95
2022-11-28T02:30:59.312Z,9.93
2022-11-28T02:34:07.981Z,9.89
2022-11-28T02:37:26.049Z,10.01
2022-11-28T02:41:09.771Z,10.00
2022-11-28T02:44:28.033Z,10.13
2022-11-28T02:47:43.656Z,10.08
2022-11-28T02:51:04.137Z,9.94
2022-11-28T02:54:03.030Z,9.70
2022-11-28T02:57:09.792Z,9.79
2022-11-28T03:00:17.886Z,9.79
2022-11-28T03:04:04.513Z,9.85
2022-11-28T03:07:56.260Z,9.94
2022-11-28T03:11:32.241Z,9.98
2022-11-28T03:15:04.076Z,10.01
2022-11-28T03:18:22.017Z,9.84
2022-11-28T03:21:53.307Z,10.08
2022-11-28T03:25:05.611Z,9.95
2022-11-28T03:28:24.268Z,9.93
2022-11-28T03:31:36.177Z,9.95
2022-11-28T03:34:50.973Z,10.03
2022-11-28T03:38:08.549Z,10.04
2022-11-28T03:41:09.210Z,10.10
2022-11-28T03:44:15.187Z,10.10
2022-11-28T03:47:20.315Z,10.28
2022-11-28T03:50:33.992Z,10.15
2022-11-28T03:53:46.990Z,10.02
2022-11-28T03:57:00.335Z,10.26
2022-11-28T04:00:08.048Z,10.20
2022-11-28T04:03:45.534Z,10.06
2022-11-28T04:07:01.191Z,9.93
2022-11-28T04:10:28.565Z,9.81
2022-11-28T04:13:53.376Z,9.75
2022-11-28T04:17:09.048Z,9.83
2022-11-28T04:20:32.504Z,9.93
2022-11-28T04:23:40.542Z,9.77
2022-11-28T04:26:53.965Z,9.71
2022-11-28T04:30:04.470Z,9.73
2022-11-28T04:33:14.577Z,9.72
2022-11-28T04:36:20.741Z,9.76
2022-11-28T04:39:33.226Z,9.86
2022-11-28T04:42:51.316Z,9.80
2022-11-28T04:46:00.778Z,9.73
2022-11-28T04:49:06.139Z,9.66
2022-11-28T04:52:32.486Z,9.75
2022-11-28T04:55:53.541Z,9.70
2022-11-28T04:59:00.635Z,9.80
2022-11-28T05:02:06.060Z,9.65
2022-11-28T05:05:12.312Z,9.67
2022-11-28T05:08:17.814Z,9.71
2022-11-28T05:11:16.717Z,9.78
2022-11-28T05:14:02.796Z,10.13
2022-11-28T05:16:55.717Z,10.14
2022-11-28T05:19:42.260Z,10.05
2022-11-28T05:22:34.315Z,10.10
2022-11-28T05:25:33.916Z,9.71
2022-11-28T05:28:39.530Z,9.91
2022-11-28T05:31:45.225Z,9.93
2022-11-28T05:34:50.268Z,9.99
2022-11-28T05:37:57.160Z,10.03
2022-11-28T05:41:02.581Z,9.62
2022-11-28T05:44:08.408Z,9.87
2022-11-28T05:47:14.360Z,10.02
2022-11-28T05:50:21.379Z,9.87
2022-11-28T05:53:27.241Z,9.82
2022-11-28T05:56:36.984Z,9.79
2022-11-28T05:59:43.439Z,10.01
2022-11-28T06:02:50.775Z,9.86
2022-11-28T06:05:57.699Z,9.78
2022-11-28T06:09:03.434Z,9.78
2022-11-28T06:12:10.898Z,9.50
2022-11-28T06:15:16.827Z,9.69
2022-11-28T06:18:23.598Z,9.96
2022-11-28T06:21:30.634Z,9.78
2022-11-28T06:24:39.060Z,9.90
2022-11-28T06:27:44.798Z,9.81
2022-11-28T06:30:49.742Z,9.84
2022-11-28T06:33:55.392Z,10.03
2022-11-28T06:37:00.870Z,10.15
2022-11-28T06:40:06.247Z,10.28
2022-11-28T06:43:13.196Z,10.07
2022-11-28T06:46:20.030Z,10.12
2022-11-28T06:49:30.638Z,10.06
2022-11-28T06:52:37.097Z,10.21
2022-11-28T06:55:43.951Z,10.09
2022-11-28T06:58:49.898Z,9.99
2022-11-28T07:01:56.411Z,10.06
2022-11-28T07:05:02.637Z,10.14
2022-11-28T07:08:09.245Z,10.31
2022-11-28T07:11:37.384Z,10.38
2022-11-28T07:14:42.894Z,10.20
2022-11-28T07:17:49.989Z,9.97
2022-11-28T07:20:57.889Z,10.12
2022-11-28T07:24:05.954Z,9.90
2022-11-28T07:27:10.748Z,9.95
2022-11-28T07:30:16.480Z,9.96
2022-11-28T07:33:22.518Z,9.98
2022-11-28T07:36:37.543Z,10.01
2022-11-28T07:39:43.134Z,10.01
2022-11-28T07:42:49.623Z,9.94
2022-11-28T07:46:01.724Z,9.98
2022-11-28T07:49:05.460Z,10.29
2022-11-28T07:52:11.391Z,9.87
2022-11-28T07:55:17.091Z,9.72
2022-11-28T07:58:23.498Z,9.74
2022-11-28T08:01:35.596Z,9.79
2022-11-28T08:04:47.622Z,9.90
2022-11-28T08:07:48.371Z,9.90
2022-11-28T08:14:09.790Z,9.79
2022-11-28T08:17:17.065Z,9.83
2022-11-28T08:20:24.575Z,9.72
2022-11-28T08:23:34.999Z,9.61
2022-11-28T08:26:44.344Z,9.47
2022-11-28T08:29:53.343Z,9.91
2022-11-28T08:32:56.904Z,9.94
2022-11-28T08:36:02.041Z,9.95
2022-11-28T08:39:24.410Z,9.56
2022-11-28T08:42:13.941Z,10.06
2022-11-28T08:45:21.650Z,10.18
2022-11-28T08:48:28.983Z,10.19
2022-11-28T08:51:37.660Z,10.04
2022-11-28T08:54:43.419Z,9.92
2022-11-28T08:57:48.848Z,10.01
2022-11-28T09:00:54.895Z,9.70
2022-11-28T09:03:54.919Z,9.93
2022-11-28T09:07:01.190Z,9.92
2022-11-28T09:10:06.508Z,9.86
2022-11-28T09:13:12.370Z,9.85
2022-11-28T09:16:18.768Z,9.83
2022-11-28T09:19:24.370Z,9.71
2022-11-28T09:22:31.741Z,9.52
2022-11-28T09:25:37.563Z,9.56
2022-11-28T09:28:43.499Z,9.86
2022-11-28T09:31:48.484Z,9.99
2022-11-28T09:34:54.222Z,10.14
2022-11-28T09:38:00.946Z,10.11
2022-11-28T09:41:09.383Z,10.23
2022-11-28T09:44:42.005Z,10.26
2022-11-28T09:47:48.511Z,10.21
2022-11-28T09:50:55.229Z,10.37
2022-11-28T09:54:23.046Z,10.36
2022-11-28T09:57:36.530Z,10.14
2022-11-28T10:00:55.787Z,10.04
2022-11-28T10:07:51.002Z,10.42
2022-11-28T10:11:13.389Z,10.21
2022-11-28T10:14:53.027Z,10.11
2022-11-28T10:18:09.425Z,10.02
2022-11-28T10:21:22.132Z,10.31
2022-11-28T10:24:37.418Z,10.29
2022-11-28T10:27:41.652Z,10.47
2022-11-28T10:30:40.020Z,10.31
2022-11-28T10:33:49.019Z,10.34
2022-11-28T10:37:03.409Z,10.07
2022-11-28T10:40:11.279Z,9.89
2022-11-28T10:43:20.703Z,9.95
2022-11-28T10:46:39.570Z,9.75
2022-11-28T10:50:02.736Z,9.91
2022-11-28T10:53:40.134Z,10.01
2022-11-28T10:57:11.757Z,10.01
2022-11-28T11:00:28.638Z,10.14
2022-11-28T11:03:34.253Z,10.07
2022-11-28T11:07:06.567Z,10.03
2022-11-28T11:09:49.366Z,9.91
2022-11-28T11:12:54.752Z,9.82
2022-11-28T11:16:01.682Z,9.84
2022-11-28T11:19:09.371Z,9.85
2022-11-28T11:22:36.180Z,9.61
2022-11-28T11:25:43.846Z,9.78
2022-11-28T11:29:03.808Z,9.63
2022-11-28T11:32:11.714Z,9.50
2022-11-28T11:35:16.776Z,9.63
2022-11-28T11:38:41.658Z,9.88
2022-11-28T11:41:47.724Z,9.71
2022-11-28T11:44:54.442Z,9.79
2022-11-28T11:48:00.550Z,9.75
2022-11-28T11:51:10.463Z,9.89
2022-11-28T11:54:32.137Z,9.56
2022-11-28T11:57:43.903Z,9.31
2022-11-28T12:00:54.715Z,9.31
2022-11-28T12:04:44.434Z,9.50
2022-11-28T12:07:39.547Z,9.60
2022-11-28T12:11:32.454Z,9.67
2022-11-28T12:14:48.269Z,9.78
2022-11-28T12:18:09.149Z,9.94
2022-11-28T12:21:27.237Z,9.75
2022-11-28T12:24:37.011Z,9.40
2022-11-28T12:28:11.634Z,9.42
2022-11-28T12:31:25.056Z,9.30
2022-11-28T12:34:49.151Z,9.48
2022-11-28T12:38:26.985Z,9.71
2022-11-28T12:42:02.063Z,9.78
2022-11-28T12:45:12.449Z,9.89
2022-11-28T12:48:53.404Z,9.86
2022-11-28T12:52:22.638Z,9.74
2022-11-28T12:55:57.403Z,9.93
2022-11-28T12:59:24.606Z,9.59
2022-11-28T13:03:23.512Z,9.40
2022-11-28T13:06:52.788Z,9.17
2022-11-28T13:10:33.321Z,9.24
2022-11-28T13:14:04.315Z,9.19
2022-11-28T13:17:11.036Z,9.12
2022-11-28T13:20:53.786Z,9.20
2022-11-28T13:24:07.781Z,9.19
2022-11-28T13:28:04.141Z,9.20
2022-11-28T13:31:21.223Z,9.37
2022-11-28T13:34:31.563Z,9.45
2022-11-28T13:41:18.097Z,8.88
2022-11-28T13:44:35.252Z,9.53
2022-11-28T13:47:46.946Z,9.22
2022-11-28T13:50:54.461Z,9.26
2022-11-28T13:53:56.019Z,8.83
2022-11-28T13:56:49.879Z,8.80
2022-11-28T13:59:55.063Z,8.84
2022-11-28T14:03:11.045Z,9.11
2022-11-28T14:06:20.146Z,8.74
2022-11-28T14:09:33.503Z,8.65
2022-11-28T14:13:09.749Z,8.82
2022-11-28T14:16:38.040Z,9.37
2022-11-28T14:19:56.827Z,9.51
2022-11-28T14:23:35.755Z,9.89
2022-11-28T14:26:51.327Z,9.37
2022-11-28T14:29:57.829Z,9.30
2022-11-28T14:33:02.122Z,9.36
2022-11-28T14:36:37.858Z,9.48
2022-11-28T14:39:47.742Z,9.51
2022-11-28T14:43:01.170Z,9.72
2022-11-28T15:36:23.163Z,5.00
2022-11-28T15:39:33.410Z,5.24
2022-11-28T15:42:47.724Z,5.63
2022-11-28T15:45:53.776Z,5.30
2022-11-28T15:49:07.798Z,5.53
2022-11-28T15:52:18.760Z,5.36
2022-11-28T15:55:24.871Z,4.97
2022-11-28T15:58:38.173Z,5.18
2022-11-28T16:01:43.670Z,5.05
2022-11-28T16:04:48.995Z,4.90
2022-11-28T16:07:59.093Z,3.52
2022-11-28T16:11:04.483Z,3.68
2022-11-28T16:14:12.898Z,3.78
2022-11-28T16:17:22.025Z,3.59
2022-11-28T16:20:46.698Z,4.25
2022-11-28T16:23:53.209Z,4.40
2022-11-28T16:26:53.220Z,4.24
2022-11-28T16:29:47.447Z,4.30
2022-11-28T16:32:54.425Z,4.17
2022-11-28T16:35:59.443Z,4.37
2022-11-28T16:39:07.294Z,3.98
2022-11-28T16:42:32.297Z,4.31
2022-11-28T16:45:43.463Z,4.27
2022-11-28T16:48:50.702Z,4.16
2022-11-28T16:51:55.600Z,4.48
2022-11-28T16:55:00.104Z,4.67
2022-11-28T16:58:06.866Z,4.45
2022-11-28T17:01:16.334Z,4.53
2022-11-28T17:04:23.215Z,4.51
2022-11-28T17:07:30.005Z,4.33
2022-11-28T17:10:35.869Z,4.41
2022-11-28T17:13:41.580Z,4.45
2022-11-28T17:16:48.179Z,4.56
2022-11-28T17:19:53.900Z,4.47
2022-11-28T17:23:03.652Z,4.49
2022-11-28T17:26:10.698Z,4.46
2022-11-28T17:29:15.965Z,4.49
2022-11-28T17:32:23.928Z,4.18
2022-11-28T17:35:32.496Z,4.03
2022-11-28T17:38:40.939Z,4.54
2022-11-28T17:41:45.481Z,4.83
2022-11-28T17:44:50.957Z,4.66
2022-11-28T17:47:56.481Z,4.47
2022-11-28T17:51:09.925Z,4.31
2022-11-28T17:54:16.147Z,4.45
2022-11-28T17:57:21.181Z,4.19
2022-11-28T18:00:28.649Z,4.02
2022-11-28T18:03:34.674Z,4.05
2022-11-28T18:06:40.429Z,4.03
2022-11-28T18:09:47.083Z,4.32
2022-11-28T18:12:52.053Z,4.06
2022-11-28T18:16:00.118Z,4.28
2022-11-28T18:18:59.938Z,4.11
2022-11-28T18:21:47.018Z,4.11
2022-11-28T18:24:42.412Z,3.95
2022-11-28T18:27:28.128Z,4.12
2022-11-28T18:30:23.046Z,4.08
2022-11-28T18:33:09.049Z,4.22
2022-11-28T18:36:02.072Z,4.27
2022-11-28T18:38:49.319Z,4.07
2022-11-28T18:41:41.698Z,4.10
2022-11-28T18:44:28.482Z,4.06
2022-11-28T18:47:20.120Z,4.15
2022-11-28T18:50:12.906Z,4.06
2022-11-28T18:53:18.192Z,4.17
2022-11-28T18:56:23.902Z,4.24
2022-11-28T18:59:22.669Z,4.17
2022-11-28T19:02:15.898Z,4.05
2022-11-28T19:05:21.720Z,3.96
2022-11-28T19:08:27.826Z,3.98
2022-11-28T19:11:35.706Z,3.90
2022-11-28T19:14:41.492Z,4.13
2022-11-28T19:17:48.522Z,4.13
2022-11-28T19:20:56.556Z,4.33
2022-11-28T19:24:02.997Z,4.33
2022-11-28T19:27:14.063Z,4.21
2022-11-28T19:30:17.209Z,4.09
2022-11-28T19:33:24.128Z,4.23
2022-11-28T19:36:28.720Z,4.26
2022-11-28T19:39:38.560Z,4.50
2022-11-28T19:42:44.688Z,4.33
2022-11-28T19:45:50.440Z,4.34
2022-11-28T19:48:58.817Z,4.27
2022-11-28T19:52:05.287Z,4.57
2022-11-28T19:55:10.684Z,4.48
2022-11-28T19:58:16.596Z,4.43
2022-11-28T20:01:29.599Z,3.81
2022-11-28T20:04:36.480Z,4.30
2022-11-28T20:07:42.629Z,4.41
2022-11-28T20:10:52.681Z,4.47
2022-11-28T20:13:57.622Z,4.63
2022-11-28T20:17:02.632Z,4.89
2022-11-28T20:20:09.799Z,4.33
2022-11-28T20:23:15.901Z,4.57
2022-11-28T20:26:21.191Z,4.63
2022-11-28T20:29:31.577Z,4.45
2022-11-28T20:32:37.561Z,4.68
2022-11-28T20:35:44.475Z,5.15
2022-11-28T20:38:49.637Z,5.00
2022-11-28T20:41:55.919Z,4.50
2022-11-28T20:45:01.758Z,4.94
2022-11-28T20:48:09.181Z,4.79
2022-11-28T20:51:14.061Z,3.84
2022-11-28T20:54:20.979Z,4.29
2022-11-28T20:57:26.650Z,4.23
2022-11-28T21:00:33.276Z,4.26
2022-11-28T21:03:38.912Z,4.47
2022-11-28T21:06:44.628Z,4.41
2022-11-28T21:09:50.776Z,4.51
2022-11-28T21:12:57.831Z,4.94
2022-11-28T21:16:02.788Z,4.51
2022-11-28T21:19:09.839Z,4.63
2022-11-28T21:22:15.346Z,4.77
2022-11-28T21:25:21.474Z,4.73
2022-11-28T21:28:27.382Z,4.53
2022-11-28T21:31:38.563Z,4.55
2022-11-28T21:34:43.707Z,4.81
2022-11-28T21:37:49.353Z,4.59
2022-11-28T21:40:55.343Z,4.88
2022-11-28T21:44:01.036Z,4.75
2022-11-28T21:47:05.736Z,4.83
2022-11-28T21:50:12.359Z,4.55
2022-11-28T21:53:18.880Z,4.90
2022-11-28T21:56:24.911Z,5.06
2022-11-28T21:59:31.137Z,5.05
2022-11-28T22:02:36.366Z,4.88
2022-11-28T22:05:41.899Z,4.83
2022-11-28T22:08:47.280Z,4.63
2022-11-28T22:11:47.207Z,4.57
2022-11-28T22:14:53.695Z,4.58
2022-11-28T22:17:59.963Z,4.60
2022-11-28T22:21:22.323Z,4.56
2022-11-28T22:24:14.422Z,4.55
2022-11-28T22:27:20.697Z,4.66
2022-11-28T22:30:26.320Z,4.86
2022-11-28T22:33:33.574Z,4.75
2022-11-28T22:36:34.551Z,4.62
2022-11-28T22:39:40.173Z,4.54
2022-11-28T22:42:47.200Z,4.65
2022-11-28T22:45:53.488Z,4.76
2022-11-28T22:48:59.501Z,4.50
2022-11-28T22:52:05.413Z,4.04
2022-11-28T22:55:05.145Z,3.96
2022-11-28T22:58:03.504Z,3.88
2022-11-28T23:01:09.187Z,3.92
2022-11-28T23:04:15.560Z,3.71
2022-11-28T23:07:22.590Z,4.00
2022-11-28T23:10:28.196Z,4.36
2022-11-28T23:13:33.765Z,4.76
2022-11-28T23:16:48.541Z,4.59
2022-11-28T23:19:54.039Z,4.80
2022-11-28T23:22:59.606Z,4.60
2022-11-28T23:26:05.370Z,4.75
2022-11-28T23:29:11.717Z,5.01
2022-11-28T23:32:16.750Z,4.53
2022-11-28T23:35:22.730Z,4.48
2022-11-28T23:38:28.353Z,4.45
2022-11-28T23:41:35.140Z,4.44
2022-11-28T23:44:40.477Z,4.55
2022-11-28T23:47:46.663Z,3.67
2022-11-28T23:50:52.863Z,3.39
2022-11-28T23:53:58.474Z,3.34
2022-11-28T23:57:04.594Z,3.41
